Date,TemperatureHighF,TemperatureAvgF,TemperatureLowF,DewpointHighF,DewpointAvgF,DewpointLowF,HumidityHigh,HumidityAvg,HumidityLow,PressureMaxIn,PressureMinIn,WindSpeedMaxMPH,WindSpeedAvgMPH,GustSpeedMaxMPH,PrecipitationSumIn
2013-1-3,45.0,45.0,45.0,44.0,43.5,43.0,96,94,93,30.24,30.23,3,2,6,0.00
2013-1-4,49.0,49.0,49.0,36.0,36.0,36.0,61,61,61,30.39,30.39,1,1,3,0.00
2013-1-5,54.0,54.0,54.0,39.0,38.8,38.0,57,56,54,30.30,30.27,0,0,2,0.00
2013-1-6,53.0,52.7,52.0,46.0,43.4,42.0,79,71,67,30.20,30.19,1,1,3,0.00
2013-1-7,59.0,59.0,59.0,41.0,41.0,41.0,51,51,51,30.26,30.26,0,0,1,0.00
2013-1-8,59.0,58.5,58.0,53.0,52.5,52.0,80,80,80,30.26,30.24,0,0,1,0.00
2013-1-9,69.0,69.0,69.0,66.0,66.0,66.0,91,91,90,30.23,30.22,3,0,6,0.00
2013-1-14,78.0,76.8,76.0,71.0,70.2,70.0,82,81,79,30.08,30.06,3,2,5,0.00
2013-1-15,76.0,74.7,74.0,72.0,71.1,70.0,90,88,86,30.00,29.97,5,2,9,0.00
2013-1-16,59.0,57.6,56.0,58.0,56.6,55.0,98,98,97,29.97,29.95,0,0,2,0.48
2013-1-17,43.0,42.4,41.0,37.0,36.1,36.0,81,78,77,30.13,30.12,4,3,9,0.00
2013-1-18,59.0,57.8,56.0,41.0,38.8,36.0,57,49,44,30.45,30.40,4,2,7,0.00
2013-1-20,65.0,64.5,64.0,50.0,49.5,48.0,61,59,55,30.23,30.21,1,1,2,0.00
2013-1-21,38.0,36.9,35.0,37.0,35.9,34.0,98,97,97,30.14,30.12,0,0,0,0.00
2013-1-22,60.0,57.6,56.0,35.0,32.1,30.0,40,38,35,30.32,30.28,2,0,5,0.00
2013-1-23,63.0,61.4,60.0,46.0,44.3,43.0,55,53,52,30.41,30.38,1,0,4,0.00
2013-1-24,71.0,69.9,69.0,58.0,57.6,57.0,66,65,63,30.33,30.30,1,1,3,0.00
2013-2-1,61.0,60.0,58.0,42.0,38.1,36.0,51,44,40,30.37,30.32,3,1,8,0.00
2013-2-2,60.0,57.1,55.0,30.0,29.5,29.0,37,35,32,30.36,30.31,3,1,5,0.00
2013-2-3,68.0,66.9,66.0,38.0,35.8,34.0,36,32,28,30.16,30.13,2,1,5,0.00
2013-2-4,57.0,57.0,57.0,49.0,49.0,49.0,75,75,75,30.03,30.03,0,0,0,0.00
2013-2-5,66.0,64.4,62.0,62.0,61.0,60.0,93,89,83,30.02,29.98,1,0,4,0.23
2013-2-6,72.0,70.4,69.0,61.0,60.4,60.0,75,71,66,30.09,30.07,1,0,2,0.00
2013-2-7,63.0,63.0,63.0,63.0,63.0,63.0,99,99,99,29.85,29.85,3,3,6,0.00
2013-3-6,56.0,55.5,55.0,30.0,29.5,29.0,38,37,36,30.21,30.20,4,2,6,0.00
2013-3-7,66.0,62.8,60.0,37.0,35.2,34.0,38,36,33,30.29,30.22,2,1,5,0.00
2013-3-9,69.0,67.4,66.0,52.0,49.9,48.0,60,54,48,30.19,30.18,4,2,11,0.00
2013-3-12,65.0,59.2,48.0,41.0,38.4,35.0,72,47,34,30.12,30.05,3,1,6,0.07
2013-3-13,67.0,60.1,47.0,41.0,29.7,23.0,43,32,24,30.29,30.22,3,1,8,0.00
2013-3-14,64.0,53.6,38.0,36.0,30.7,25.0,81,46,23,30.39,30.27,3,0,7,0.08
2013-3-15,70.0,59.7,38.0,49.0,46.8,33.0,84,65,43,30.32,30.16,3,1,7,0.04
2013-3-17,73.0,68.0,63.0,65.0,63.4,62.0,95,85,73,30.02,29.94,4,1,8,0.00
2013-3-18,80.0,75.1,70.0,71.0,69.4,68.0,94,83,73,29.91,29.81,3,1,11,0.00
2013-3-19,77.0,67.3,52.0,58.0,52.5,49.0,88,62,40,30.03,29.94,3,0,5,0.06
2013-3-20,64.0,54.9,38.0,40.0,36.9,34.0,86,54,36,30.06,29.98,4,0,6,0.00
2013-3-21,65.0,63.4,38.0,34.0,27.7,26.0,86,27,24,30.04,29.96,3,2,7,0.00
2013-3-24,84.0,71.0,52.0,65.0,51.5,31.0,64,51,33,29.88,29.59,3,2,13,0.00
2013-3-25,61.0,53.7,41.0,30.0,25.9,22.0,56,35,27,30.20,30.01,4,1,11,0.28
2013-3-26,56.0,43.3,33.0,31.0,27.8,25.0,82,57,33,30.35,30.21,4,1,10,0.27
2013-3-27,62.0,52.6,37.0,39.0,32.4,28.0,93,52,28,30.39,30.28,2,0,6,0.00
2013-3-28,72.0,60.4,37.0,42.0,37.9,29.0,93,48,21,30.33,30.23,3,0,5,0.00
2013-3-29,72.0,59.5,48.0,50.0,45.6,36.0,93,65,27,30.26,30.22,3,1,6,0.00
2013-3-30,77.0,66.3,48.0,60.0,53.8,-99.9,96,72,44,30.24,30.07,4,1,8,0.00
2013-3-31,80.0,71.2,55.0,64.0,60.3,54.0,97,70,52,30.08,29.91,5,2,9,0.00
2013-4-1,76.0,65.4,51.0,61.0,55.5,49.0,93,72,56,30.04,29.98,2,0,4,0.00
2013-4-2,81.0,71.7,57.0,51.0,48.7,46.0,81,48,30,30.14,30.02,4,1,11,0.00
2013-4-4,74.0,68.2,62.0,65.0,62.4,60.0,94,82,69,29.93,29.84,2,0,4,0.13
2013-4-5,65.0,56.3,47.0,52.0,49.8,46.0,95,80,61,30.10,30.00,4,1,8,0.02
2013-4-6,74.0,67.7,57.0,52.0,49.7,46.0,80,54,42,30.16,30.10,4,2,8,0.00
2013-4-7,76.0,70.1,62.0,65.0,62.7,61.0,96,78,63,30.16,30.06,4,1,8,0.00
2013-4-8,81.0,74.5,64.0,66.0,62.0,59.0,96,67,49,30.11,30.04,6,2,12,0.00
2013-4-9,84.0,80.0,72.0,64.0,62.6,61.0,74,56,50,30.13,30.07,6,3,13,0.01
2013-4-10,83.0,72.5,65.0,67.0,64.7,64.0,96,78,56,30.00,29.92,6,1,11,0.00
2013-4-11,79.0,74.3,68.0,74.0,71.6,67.0,97,92,82,29.83,29.61,9,4,17,1.20
2013-4-12,76.0,64.9,51.0,54.0,49.9,48.0,92,62,40,29.97,29.88,3,0,6,1.18
2013-4-13,82.0,73.2,62.0,57.0,52.0,47.0,84,51,31,30.05,29.90,3,0,5,0.00
2013-4-14,62.0,60.5,59.0,61.0,59.5,58.0,98,98,97,29.86,29.72,3,0,7,1.39
2013-4-15,79.0,71.8,68.0,71.0,68.0,66.0,94,88,76,30.06,29.98,1,0,4,0.00
2013-4-16,87.0,76.8,66.0,70.0,68.2,65.0,96,76,57,30.14,30.10,4,1,9,0.00
2013-4-17,79.0,73.4,70.0,67.0,65.5,65.0,84,77,67,30.06,30.04,2,0,4,0.00
2013-4-18,80.0,75.8,72.0,72.0,71.0,70.0,94,85,74,29.98,29.91,6,2,16,0.00
2013-4-19,54.0,51.8,51.0,53.0,50.6,50.0,97,96,91,30.15,29.98,3,0,5,0.58
2013-4-20,67.0,59.5,46.0,48.0,44.4,41.0,94,61,41,30.21,30.13,3,1,6,0.11
2013-4-21,76.0,67.0,53.0,52.0,49.7,48.0,86,57,40,30.19,30.12,4,0,6,0.00
2013-4-22,72.0,65.8,57.0,62.0,59.8,56.0,96,82,71,30.15,30.09,2,0,4,0.00
2013-4-23,76.0,69.3,57.0,63.0,60.5,56.0,96,75,61,30.15,30.06,4,1,8,0.00
2013-4-24,75.0,68.6,61.0,69.0,65.6,60.0,98,91,76,30.14,30.07,2,0,4,0.01
2013-4-25,79.0,71.0,57.0,66.0,58.7,48.0,76,66,54,30.27,30.20,3,0,5,0.01
2013-4-26,83.0,73.0,58.0,58.0,52.5,44.0,87,51,33,30.32,30.21,3,0,5,0.00
2013-4-27,80.0,75.4,67.0,70.0,68.0,66.0,95,78,69,30.21,30.10,7,2,11,0.00
2013-4-28,83.0,77.0,70.0,68.0,65.8,64.0,85,69,57,30.04,29.96,3,0,8,0.00
2013-4-29,84.0,72.9,64.0,69.0,66.2,63.0,98,81,53,29.98,29.90,2,0,6,0.06
2013-4-30,83.0,76.1,69.0,71.0,67.1,64.0,97,76,56,29.98,29.91,4,1,8,0.06
2013-5-1,73.0,68.5,67.0,68.0,65.8,65.0,96,91,83,29.98,29.93,2,0,8,0.01
2013-5-2,78.0,69.9,65.0,69.0,65.5,62.0,96,86,72,30.01,29.90,2,0,8,0.02
2013-5-4,70.0,62.5,48.0,48.0,44.8,42.0,85,54,39,29.93,29.87,3,1,10,0.79
2013-5-5,60.0,54.3,51.0,43.0,41.6,40.0,70,62,54,29.98,29.91,1,0,3,0.00
2013-5-6,72.0,64.8,56.0,57.0,53.5,50.0,90,68,47,29.98,29.92,4,0,8,0.00
2013-5-7,77.0,66.2,51.0,62.0,56.8,50.0,97,74,55,30.03,29.94,2,0,4,0.00
2013-5-11,76.0,70.5,66.0,70.0,65.3,-99.9,97,88,80,30.03,29.95,2,0,4,0.12
2013-5-12,82.0,74.1,60.0,60.0,57.6,54.0,83,58,40,30.11,30.04,2,0,9,0.00
2013-5-13,80.0,64.7,45.0,54.0,46.1,40.0,95,56,26,30.27,30.11,5,1,10,0.00
2013-5-16,84.0,64.8,67.0,70.0,26.3,-99.9,89,73,58,30.06,30.00,4,1,7,0.00
2013-5-18,87.0,76.0,69.0,72.0,69.2,66.0,91,80,61,30.06,30.02,4,1,9,0.00
2013-5-19,69.0,66.2,65.0,66.0,64.4,63.0,95,93,91,30.04,30.01,0,0,0,0.00
2013-5-22,90.0,81.5,73.0,74.0,71.7,68.0,92,74,49,29.97,29.88,3,0,8,0.00
2013-5-23,72.0,72.0,72.0,68.0,68.0,68.0,88,88,88,30.03,30.02,0,0,0,0.00
2013-5-24,72.0,72.0,72.0,69.0,68.7,68.0,89,89,88,30.03,30.03,0,0,0,0.00